• Join FlightAware (Why Join?)
  • Login
  • US Flag 
10:22AM EST


 

Airport Tracker/Info


-or-


 

Live Flight TrackerFlight Track Log ✈ SWA3143 ✈ 20-Apr-2013 ✈ KAUS - KELP

Flight Track Log - Related Links

Times and Time Zones

All times are in EDT time to prevent confusion due to time zone crossing. See the SWA3143 flight status page for this flight to view local times or setup timezone preferences in your user account.

Time Position Orientation Groundspeed Altitude Reporting Facility
EDT Latitude Longitude Course Direction KTS MPH feet Rate Location/Type
08:19PM 30.2103 -97.8403 303° West 283 326 10,000  Level Houston Center
08:20PM 30.2317 -97.9497 283° West 325 374 12,600 2,878 Climbing Houston Center
08:21PM 30.2553 -98.0569 284° West 341 392 15,900 2,829 Climbing Houston Center
08:22PM 30.2783 -98.1653 284° West 347 399 18,400 2,410 Climbing Houston Center
08:23PM 30.4130 -97.8885 276° West  Level FlightAware Approximate
08:23PM 30.3047 -98.2872 284° West 362 417 20,800  Level Houston Center
08:24PM 30.3261 -98.3925 283° West 369 425 23,400 2,195 Climbing Houston Center
08:25PM 30.3503 -98.5078 284° West 366 421 25,300 1,967 Climbing Houston Center
08:26PM 30.3750 -98.6261 284° West 373 429 27,400 2,066 Climbing Houston Center
08:27PM 30.3992 -98.7422 284° West 367 422 29,500 2,115 Climbing Houston Center
08:28PM 30.4236 -98.8539 284° West 355 409 31,700 1,854 Climbing Houston Center
08:29PM 30.4469 -98.9619 284° West 344 396 33,300 1,122 Climbing Houston Center
08:30PM 30.4689 -99.0711 283° West 344 396 34,000 344 Climbing Houston Center
08:31PM 30.4947 -99.1953 284° West 357 411 34,000  Level Houston Center
08:32PM 30.5169 -99.3058 283° West 355 409 34,000  Level Houston Center
08:33PM 30.5400 -99.4169 284° West 356 410 34,000  Level Houston Center
08:34PM 30.5625 -99.5281 283° West 357 411 34,000  Level Houston Center
08:35PM 30.5842 -99.6375 283° West 352 405 34,000  Level Houston Center
08:36PM 30.6056 -99.7478 283° West 351 404 34,000  Level Houston Center
08:37PM 30.6272 -99.8536 283° West 347 399 34,000  Level Houston Center
08:38PM 30.6522 -99.9850 283° West 348 400 34,000  Level Houston Center
08:39PM 30.6753 -100.0928 284° West 345 397 34,000  Level Houston Center
08:40PM 30.6950 -100.2011 282° West 345 397 34,000  Level Houston Center
08:41PM 30.7175 -100.3069 284° West 341 392 34,000  Level Houston Center
08:42PM 30.7381 -100.4156 282° West 343 395 34,000  Level Houston Center
08:43PM 30.7592 -100.5219 283° West 340 391 34,000  Level Houston Center
08:45PM 30.7800 -100.6317 282° West 351 404 34,000  Level Houston Center
08:46PM 30.8006 -100.7372 283° West 332 382 34,000 -49 Level Houston Center
08:47PM 30.8219 -100.8472 283° West 343 395 33,900  Descending Houston Center
08:48PM 30.8464 -100.9792 282° West 348 400 34,000 49 Climbing Houston Center
08:49PM 30.8675 -101.0869 283° West 341 392 34,000  Level Houston Center
08:50PM 30.8878 -101.1972 282° West 347 399 34,000  Level Houston Center
08:51PM 30.9100 -101.3081 283° West 350 403 34,000  Level Houston Center
08:52PM 30.9272 -101.4139 281° West 352 405 34,000  Level Houston Center
08:52PM 30.9364 -101.4553 284° West 350 403 34,000  Level Albuquerque Center
08:53PM 30.9556 -101.5647 282° West 346 398 34,000 -49 Level Albuquerque Center
08:54PM 30.9756 -101.6733 282° West 344 396 33,900  Descending Albuquerque Center
08:55PM 30.9944 -101.7792 282° West 339 390 34,000  Climbing Albuquerque Center
08:56PM 31.0142 -101.8839 282° West 334 384 33,900  Descending Albuquerque Center
08:57PM 31.0328 -101.9894 282° West 331 381 34,000 49 Climbing Albuquerque Center
08:58PM 31.0522 -102.0956 282° West 332 382 34,000  Level Albuquerque Center
08:59PM 31.0697 -102.1997 281° West 331 381 34,000  Level Albuquerque Center
09:00PM 31.0931 -102.3253 282° West 330 380 34,000  Level Albuquerque Center
09:01PM 31.1108 -102.4294 281° West 328 377 34,000  Level Albuquerque Center
09:02PM 31.1289 -102.5319 282° West 324 373 34,000  Level Albuquerque Center
09:03PM 31.1472 -102.6350 282° West 315 362 34,000  Level Albuquerque Center
09:04PM 31.1650 -102.7375 281° West 319 367 34,000 -49 Level Albuquerque Center
09:05PM 31.1828 -102.8397 282° West 321 369 33,900  Descending Albuquerque Center
09:06PM 31.2008 -102.9408 282° West 319 367 34,000 49 Climbing Albuquerque Center
09:07PM 31.2181 -103.0442 281° West 323 372 34,000  Level Albuquerque Center
09:08PM 31.2358 -103.1475 281° West 326 375 34,000  Level Albuquerque Center
09:09PM 31.2533 -103.2539 281° West 331 381 34,000  Level Albuquerque Center
09:10PM 31.2717 -103.3589 282° West 331 381 34,000  Level Albuquerque Center
09:11PM 31.2900 -103.4664 281° West 335 386 34,000  Level Albuquerque Center
09:12PM 31.3072 -103.5761 280° West 341 392 34,000  Level Albuquerque Center
09:13PM 31.3289 -103.7053 281° West 339 390 34,000  Level Albuquerque Center
09:14PM 31.3467 -103.8069 282° West 345 397 34,000  Level Albuquerque Center
09:15PM 31.3653 -103.9164 281° West 345 397 34,000  Level Albuquerque Center
09:16PM 31.3842 -104.0269 281° West 347 399 34,000  Level Albuquerque Center
09:17PM 31.4017 -104.1381 280° West 348 400 34,000  Level Albuquerque Center
09:18PM 31.4200 -104.2497 281° West 350 403 34,000  Level Albuquerque Center
09:19PM 31.4386 -104.3614 281° West 351 404 34,000 -49 Level Albuquerque Center
09:20PM 31.4581 -104.4958 280° West 351 404 33,900  Descending Albuquerque Center
09:22PM 31.4683 -104.6083 276° West 351 404 34,000 49 Climbing Albuquerque Center
09:23PM 31.4806 -104.7217 277° West 352 405 34,000  Level Albuquerque Center
09:24PM 31.4928 -104.8311 277° West 345 397 34,000 -885 Level Albuquerque Center
09:25PM 31.5031 -104.9375 276° West 334 384 32,200 -2,410 Descending Albuquerque Center
09:26PM 31.5142 -105.0425 277° West 328 377 29,100 -2,803 Descending Albuquerque Center
09:27PM 31.5261 -105.1542 277° West 342 394 26,500 -2,508 Descending Albuquerque Center
09:28PM 31.5358 -105.2658 276° West 347 399 24,000 -2,410 Descending Albuquerque Center
09:29PM 31.5458 -105.3733 276° West 338 389 21,600 -2,508 Descending Albuquerque Center
09:30PM 31.5583 -105.4939 277° West 313 360 18,900 -2,485 Descending Albuquerque Center
09:30PM 31.5625 -105.5567 274° West 321 369 17,500 -2,459 Descending Albuquerque Center
09:31PM 31.5686 -105.6019 279° West 337 388 16,400 -2,444 Descending Albuquerque Center
09:31PM 31.5747 -105.6558 278° West 335 386 15,300 -2,262 Descending Albuquerque Center
09:32PM 31.5792 -105.7081 276° West 332 382 14,100 -2,418 Descending Albuquerque Center
09:32PM 31.5847 -105.7781 275° West 327 376 12,600 -2,262 Descending Albuquerque Center
09:33PM 31.5928 -105.8117 286° West 324 373 11,800 -2,066 Descending Albuquerque Center
09:33PM 31.6214 -105.8711 299° West 313 360 10,500 -1,574 Descending Albuquerque Center
09:34PM 31.6367 -105.8981 304° West 306 352 10,200 -1,000 Descending Albuquerque Center
09:34PM 31.6658 -105.9497 304° West 281 323 9,500 -1,082 Descending Albuquerque Center
09:35PM 31.6806 -105.9714 309° West 275 316 9,100 -1,091 Descending Albuquerque Center
09:35PM 31.7031 -106.0128 303° West 245 282 8,500 -1,082 Descending Albuquerque Center
09:36PM 31.7139 -106.0397 295° West 241 277 8,000 -985 Descending Albuquerque Center
09:36PM 31.7278 -106.0892 288° West 223 257 7,400 -689 Descending Albuquerque Center
09:37PM 31.7361 -106.1089 296° West 225 259 7,300 -100 Descending Albuquerque Center
09:37PM 31.7492 -106.1461 292° West 188 216 7,300 -98 Level Albuquerque Center
09:38PM 31.7553 -106.1639 292° West 186 214 7,200 -655 Descending Albuquerque Center
09:38PM 31.7672 -106.1992 292° West 183 211 6,700 -1,000 Descending Albuquerque Center
09:39PM 31.7756 -106.2231 292° West 193 222 6,200 -1,000 Descending Albuquerque Center
09:39PM 31.7864 -106.2569 291° West 189 217 5,700 -885 Descending Albuquerque Center
09:40PM 31.7928 -106.2761 291° West 178 205 5,300 -689 Descending Albuquerque Center
09:40PM 31.7967 -106.3017 280° West 134 154 5,000 -689 Descending Albuquerque Center
09:41PM 31.7992 -106.3192 280° West 138 159 4,600 -806 Descending Albuquerque Center
09:41PM 31.7997 -106.3533 271° West 131 151 4,100 -689 Descending Albuquerque Center
09:42PM 31.8014 -106.3664 279° West 134 154 3,900 -462 Descending Albuquerque Center
09:44PM 31.8000 -106.3667 North  Level FlightAware Approximate
09:51PM 31.8072 -106.3764 North  Level Estimated
09:52PM 31.8072 -106.3764 North  Level Estimated
09:53PM 31.8072 -106.3764 North  Level Estimated
09:54PM 31.8072 -106.3764 North  Level Estimated